sensor_id;sensor_type;location;lat;lon;timestamp;temperature;humidity
30304;DHT22;17112;48.636;10.152;2023-03-16T00:02:02;2.80;64.10
30304;DHT22;17112;48.636;10.152;2023-03-16T00:04:28;2.80;64.20
30304;DHT22;17112;48.636;10.152;2023-03-16T00:06:55;2.80;64.20
30304;DHT22;17112;48.636;10.152;2023-03-16T00:09:21;2.80;64.30
30304;DHT22;17112;48.636;10.152;2023-03-16T00:11:46;2.80;64.40
30304;DHT22;17112;48.636;10.152;2023-03-16T00:14:12;2.70;64.40
30304;DHT22;17112;48.636;10.152;2023-03-16T00:16:38;2.70;64.40
30304;DHT22;17112;48.636;10.152;2023-03-16T00:19:04;2.70;64.40
30304;DHT22;17112;48.636;10.152;2023-03-16T00:21:30;2.70;65.20
30304;DHT22;17112;48.636;10.152;2023-03-16T00:23:57;2.70;64.70
30304;DHT22;17112;48.636;10.152;2023-03-16T00:26:23;2.70;64.70
30304;DHT22;17112;48.636;10.152;2023-03-16T00:28:50;2.70;64.70
30304;DHT22;17112;48.636;10.152;2023-03-16T00:31:18;2.60;64.80
30304;DHT22;17112;48.636;10.152;2023-03-16T00:33:44;2.60;65.00
30304;DHT22;17112;48.636;10.152;2023-03-16T00:36:11;2.60;65.00
30304;DHT22;17112;48.636;10.152;2023-03-16T00:38:39;2.60;64.80
30304;DHT22;17112;48.636;10.152;2023-03-16T00:41:09;2.60;64.60
30304;DHT22;17112;48.636;10.152;2023-03-16T00:43:36;2.60;64.60
30304;DHT22;17112;48.636;10.152;2023-03-16T00:46:09;2.60;64.80
30304;DHT22;17112;48.636;10.152;2023-03-16T00:48:37;2.60;64.70
30304;DHT22;17112;48.636;10.152;2023-03-16T00:51:05;2.50;64.60
30304;DHT22;17112;48.636;10.152;2023-03-16T00:53:35;2.50;64.90
30304;DHT22;17112;48.636;10.152;2023-03-16T00:56:02;2.50;65.10
30304;DHT22;17112;48.636;10.152;2023-03-16T00:58:32;2.50;65.00
30304;DHT22;17112;48.636;10.152;2023-03-16T01:03:27;2.50;65.30
30304;DHT22;17112;48.636;10.152;2023-03-16T01:05:53;2.50;65.40
30304;DHT22;17112;48.636;10.152;2023-03-16T01:08:18;2.50;65.60
30304;DHT22;17112;48.636;10.152;2023-03-16T01:10:44;2.60;65.80
30304;DHT22;17112;48.636;10.152;2023-03-16T01:13:10;2.60;65.80
30304;DHT22;17112;48.636;10.152;2023-03-16T01:15:37;2.60;65.70
30304;DHT22;17112;48.636;10.152;2023-03-16T01:18:03;2.60;65.60
30304;DHT22;17112;48.636;10.152;2023-03-16T01:20:29;2.60;65.90
30304;DHT22;17112;48.636;10.152;2023-03-16T01:22:55;2.60;65.90
30304;DHT22;17112;48.636;10.152;2023-03-16T01:25:20;2.70;66.00
30304;DHT22;17112;48.636;10.152;2023-03-16T01:27:46;2.70;65.90
30304;DHT22;17112;48.636;10.152;2023-03-16T01:30:12;2.70;65.90
30304;DHT22;17112;48.636;10.152;2023-03-16T01:32:39;2.70;66.00
30304;DHT22;17112;48.636;10.152;2023-03-16T01:35:06;2.70;66.10
30304;DHT22;17112;48.636;10.152;2023-03-16T01:37:32;2.80;66.30
30304;DHT22;17112;48.636;10.152;2023-03-16T01:39:57;2.80;66.40
30304;DHT22;17112;48.636;10.152;2023-03-16T01:42:23;2.80;66.40
30304;DHT22;17112;48.636;10.152;2023-03-16T01:44:59;2.80;66.40
30304;DHT22;17112;48.636;10.152;2023-03-16T01:47:27;2.90;66.70
30304;DHT22;17112;48.636;10.152;2023-03-16T01:49:55;2.90;66.30
30304;DHT22;17112;48.636;10.152;2023-03-16T01:52:27;2.90;66.30
30304;DHT22;17112;48.636;10.152;2023-03-16T01:55:00;2.90;66.30
30304;DHT22;17112;48.636;10.152;2023-03-16T01:57:30;2.90;66.20
30304;DHT22;17112;48.636;10.152;2023-03-16T02:00:15;3.00;66.20
30304;DHT22;17112;48.636;10.152;2023-03-16T02:02:51;3.00;66.60
30304;DHT22;17112;48.636;10.152;2023-03-16T02:07:51;3.00;66.40
30304;DHT22;17112;48.636;10.152;2023-03-16T02:10:23;3.10;66.50
30304;DHT22;17112;48.636;10.152;2023-03-16T02:12:51;3.10;66.50
30304;DHT22;17112;48.636;10.152;2023-03-16T02:15:17;3.10;66.50
30304;DHT22;17112;48.636;10.152;2023-03-16T02:17:44;3.10;66.60
30304;DHT22;17112;48.636;10.152;2023-03-16T02:22:50;3.20;66.90
30304;DHT22;17112;48.636;10.152;2023-03-16T02:25:22;3.20;66.80
30304;DHT22;17112;48.636;10.152;2023-03-16T02:30:36;3.20;67.50
30304;DHT22;17112;48.636;10.152;2023-03-16T02:33:02;3.30;66.80
30304;DHT22;17112;48.636;10.152;2023-03-16T02:35:30;3.30;67.00
30304;DHT22;17112;48.636;10.152;2023-03-16T02:37:55;3.30;67.00
30304;DHT22;17112;48.636;10.152;2023-03-16T02:40:29;3.30;67.00
30304;DHT22;17112;48.636;10.152;2023-03-16T02:43:14;3.40;67.30
30304;DHT22;17112;48.636;10.152;2023-03-16T02:45:55;3.40;67.30
30304;DHT22;17112;48.636;10.152;2023-03-16T02:48:44;3.40;67.40
30304;DHT22;17112;48.636;10.152;2023-03-16T02:51:11;3.70;67.80
30304;DHT22;17112;48.636;10.152;2023-03-16T02:53:37;3.40;66.80
30304;DHT22;17112;48.636;10.152;2023-03-16T02:56:03;3.40;66.70
30304;DHT22;17112;48.636;10.152;2023-03-16T02:58:29;3.50;66.80
30304;DHT22;17112;48.636;10.152;2023-03-16T03:00:56;3.50;67.00
30304;DHT22;17112;48.636;10.152;2023-03-16T03:03:22;3.50;67.20
30304;DHT22;17112;48.636;10.152;2023-03-16T03:05:47;3.50;67.10
30304;DHT22;17112;48.636;10.152;2023-03-16T03:08:13;3.50;67.10
30304;DHT22;17112;48.636;10.152;2023-03-16T03:10:39;3.50;67.20
30304;DHT22;17112;48.636;10.152;2023-03-16T03:13:05;3.50;67.20
30304;DHT22;17112;48.636;10.152;2023-03-16T03:15:34;3.70;67.40
30304;DHT22;17112;48.636;10.152;2023-03-16T03:18:00;3.50;67.30
30304;DHT22;17112;48.636;10.152;2023-03-16T03:20:25;3.70;67.60
30304;DHT22;17112;48.636;10.152;2023-03-16T03:22:51;3.50;67.50
30304;DHT22;17112;48.636;10.152;2023-03-16T03:25:18;3.50;67.60
30304;DHT22;17112;48.636;10.152;2023-03-16T03:27:45;3.60;67.70
30304;DHT22;17112;48.636;10.152;2023-03-16T03:30:14;3.60;67.80
30304;DHT22;17112;48.636;10.152;2023-03-16T03:32:40;3.60;67.90
30304;DHT22;17112;48.636;10.152;2023-03-16T03:35:07;3.60;67.80
30304;DHT22;17112;48.636;10.152;2023-03-16T03:37:32;3.60;67.70
30304;DHT22;17112;48.636;10.152;2023-03-16T03:39:58;3.70;67.80
30304;DHT22;17112;48.636;10.152;2023-03-16T03:42:24;3.60;68.50
30304;DHT22;17112;48.636;10.152;2023-03-16T03:44:50;3.70;67.80
30304;DHT22;17112;48.636;10.152;2023-03-16T03:47:17;3.70;68.00
30304;DHT22;17112;48.636;10.152;2023-03-16T03:49:43;3.70;67.90
30304;DHT22;17112;48.636;10.152;2023-03-16T03:52:08;3.70;67.90
30304;DHT22;17112;48.636;10.152;2023-03-16T03:54:34;3.70;67.80
30304;DHT22;17112;48.636;10.152;2023-03-16T03:57:00;3.70;67.80
30304;DHT22;17112;48.636;10.152;2023-03-16T03:59:25;3.70;67.80
30304;DHT22;17112;48.636;10.152;2023-03-16T04:01:51;3.80;67.90
30304;DHT22;17112;48.636;10.152;2023-03-16T04:04:18;3.80;67.90
30304;DHT22;17112;48.636;10.152;2023-03-16T04:06:44;3.80;67.80
30304;DHT22;17112;48.636;10.152;2023-03-16T04:09:10;3.80;67.90
30304;DHT22;17112;48.636;10.152;2023-03-16T04:11:37;3.80;67.90
30304;DHT22;17112;48.636;10.152;2023-03-16T04:14:03;3.80;67.90
30304;DHT22;17112;48.636;10.152;2023-03-16T04:16:29;3.80;67.90
30304;DHT22;17112;48.636;10.152;2023-03-16T04:18:55;3.80;67.90
30304;DHT22;17112;48.636;10.152;2023-03-16T04:21:21;3.80;67.90
30304;DHT22;17112;48.636;10.152;2023-03-16T04:23:48;3.80;67.90
30304;DHT22;17112;48.636;10.152;2023-03-16T04:26:19;3.80;67.90
30304;DHT22;17112;48.636;10.152;2023-03-16T04:28:45;3.80;67.90
30304;DHT22;17112;48.636;10.152;2023-03-16T04:31:10;3.80;67.80
30304;DHT22;17112;48.636;10.152;2023-03-16T04:33:37;3.80;67.80
30304;DHT22;17112;48.636;10.152;2023-03-16T04:36:05;3.80;67.80
30304;DHT22;17112;48.636;10.152;2023-03-16T04:38:32;3.70;67.70
30304;DHT22;17112;48.636;10.152;2023-03-16T04:40:58;3.80;67.80
30304;DHT22;17112;48.636;10.152;2023-03-16T04:43:24;3.70;67.80
30304;DHT22;17112;48.636;10.152;2023-03-16T04:45:50;3.70;67.90
30304;DHT22;17112;48.636;10.152;2023-03-16T04:48:15;3.70;67.90
30304;DHT22;17112;48.636;10.152;2023-03-16T04:50:41;3.70;67.90
30304;DHT22;17112;48.636;10.152;2023-03-16T04:53:07;3.70;67.90
30304;DHT22;17112;48.636;10.152;2023-03-16T04:55:33;3.70;68.00
30304;DHT22;17112;48.636;10.152;2023-03-16T04:57:58;3.70;68.00
30304;DHT22;17112;48.636;10.152;2023-03-16T05:00:25;3.70;67.90
30304;DHT22;17112;48.636;10.152;2023-03-16T05:02:50;3.70;68.00
30304;DHT22;17112;48.636;10.152;2023-03-16T05:05:17;3.70;67.90
30304;DHT22;17112;48.636;10.152;2023-03-16T05:07:43;3.70;68.00
30304;DHT22;17112;48.636;10.152;2023-03-16T05:10:14;3.70;68.00
30304;DHT22;17112;48.636;10.152;2023-03-16T05:12:40;3.70;68.10
30304;DHT22;17112;48.636;10.152;2023-03-16T05:15:07;3.70;67.80
30304;DHT22;17112;48.636;10.152;2023-03-16T05:17:33;3.70;67.60
30304;DHT22;17112;48.636;10.152;2023-03-16T05:19:59;4.00;67.80
30304;DHT22;17112;48.636;10.152;2023-03-16T05:22:24;3.70;67.70
30304;DHT22;17112;48.636;10.152;2023-03-16T05:24:50;3.60;67.70
30304;DHT22;17112;48.636;10.152;2023-03-16T05:27:16;3.60;67.70
30304;DHT22;17112;48.636;10.152;2023-03-16T05:29:41;3.90;67.80
30304;DHT22;17112;48.636;10.152;2023-03-16T05:32:11;3.60;67.80
30304;DHT22;17112;48.636;10.152;2023-03-16T05:34:37;3.70;68.10
30304;DHT22;17112;48.636;10.152;2023-03-16T05:37:03;3.60;68.20
30304;DHT22;17112;48.636;10.152;2023-03-16T05:39:28;3.60;68.40
30304;DHT22;17112;48.636;10.152;2023-03-16T05:41:56;3.90;68.60
30304;DHT22;17112;48.636;10.152;2023-03-16T05:44:22;3.60;68.50
30304;DHT22;17112;48.636;10.152;2023-03-16T05:46:49;3.70;68.60
30304;DHT22;17112;48.636;10.152;2023-03-16T05:49:14;3.70;68.60
30304;DHT22;17112;48.636;10.152;2023-03-16T05:51:40;3.70;68.60
30304;DHT22;17112;48.636;10.152;2023-03-16T05:54:06;3.70;68.70
30304;DHT22;17112;48.636;10.152;2023-03-16T05:56:31;3.80;68.50
30304;DHT22;17112;48.636;10.152;2023-03-16T05:58:57;3.80;68.30
30304;DHT22;17112;48.636;10.152;2023-03-16T06:01:24;3.80;68.50
30304;DHT22;17112;48.636;10.152;2023-03-16T06:03:51;3.80;68.60
30304;DHT22;17112;48.636;10.152;2023-03-16T06:06:18;4.10;68.80
30304;DHT22;17112;48.636;10.152;2023-03-16T06:08:44;3.80;68.50
30304;DHT22;17112;48.636;10.152;2023-03-16T06:11:10;3.80;68.50
30304;DHT22;17112;48.636;10.152;2023-03-16T06:13:37;3.80;68.40
30304;DHT22;17112;48.636;10.152;2023-03-16T06:16:03;3.80;68.40
30304;DHT22;17112;48.636;10.152;2023-03-16T06:18:31;3.80;68.40
30304;DHT22;17112;48.636;10.152;2023-03-16T06:20:56;3.80;68.40
30304;DHT22;17112;48.636;10.152;2023-03-16T06:23:22;3.80;68.30
30304;DHT22;17112;48.636;10.152;2023-03-16T06:25:48;3.80;68.40
30304;DHT22;17112;48.636;10.152;2023-03-16T06:28:14;3.80;68.40
30304;DHT22;17112;48.636;10.152;2023-03-16T06:30:40;3.80;68.50
30304;DHT22;17112;48.636;10.152;2023-03-16T06:33:06;3.80;68.50
30304;DHT22;17112;48.636;10.152;2023-03-16T06:35:33;3.80;68.70
30304;DHT22;17112;48.636;10.152;2023-03-16T06:37:59;3.80;68.70
30304;DHT22;17112;48.636;10.152;2023-03-16T06:40:24;3.90;69.50
30304;DHT22;17112;48.636;10.152;2023-03-16T06:42:50;3.90;68.80
30304;DHT22;17112;48.636;10.152;2023-03-16T06:45:16;3.90;68.80
30304;DHT22;17112;48.636;10.152;2023-03-16T06:47:45;4.00;68.90
30304;DHT22;17112;48.636;10.152;2023-03-16T06:50:11;4.00;68.90
30304;DHT22;17112;48.636;10.152;2023-03-16T06:52:37;4.10;68.80
30304;DHT22;17112;48.636;10.152;2023-03-16T06:55:03;4.10;68.60
30304;DHT22;17112;48.636;10.152;2023-03-16T06:57:28;4.20;68.70
30304;DHT22;17112;48.636;10.152;2023-03-16T06:59:54;4.20;68.60
30304;DHT22;17112;48.636;10.152;2023-03-16T07:02:19;4.30;68.60
30304;DHT22;17112;48.636;10.152;2023-03-16T07:04:48;4.30;68.40
30304;DHT22;17112;48.636;10.152;2023-03-16T07:07:14;4.30;68.10
30304;DHT22;17112;48.636;10.152;2023-03-16T07:09:39;4.40;68.20
30304;DHT22;17112;48.636;10.152;2023-03-16T07:12:06;4.40;68.30
30304;DHT22;17112;48.636;10.152;2023-03-16T07:14:32;4.50;68.40
30304;DHT22;17112;48.636;10.152;2023-03-16T07:16:58;4.50;68.30
30304;DHT22;17112;48.636;10.152;2023-03-16T07:19:23;4.70;68.20
30304;DHT22;17112;48.636;10.152;2023-03-16T07:21:49;4.70;68.00
30304;DHT22;17112;48.636;10.152;2023-03-16T07:24:16;4.80;67.90
30304;DHT22;17112;48.636;10.152;2023-03-16T07:26:41;4.90;67.90
30304;DHT22;17112;48.636;10.152;2023-03-16T07:29:08;5.00;67.90
30304;DHT22;17112;48.636;10.152;2023-03-16T07:31:34;5.10;67.60
30304;DHT22;17112;48.636;10.152;2023-03-16T07:34:02;5.20;67.20
30304;DHT22;17112;48.636;10.152;2023-03-16T07:36:28;5.30;67.10
30304;DHT22;17112;48.636;10.152;2023-03-16T07:38:54;5.40;67.10
30304;DHT22;17112;48.636;10.152;2023-03-16T07:41:20;5.50;67.20
30304;DHT22;17112;48.636;10.152;2023-03-16T07:43:46;5.60;67.30
30304;DHT22;17112;48.636;10.152;2023-03-16T07:46:12;5.70;67.20
30304;DHT22;17112;48.636;10.152;2023-03-16T07:48:41;5.90;67.20
30304;DHT22;17112;48.636;10.152;2023-03-16T07:51:09;6.00;66.70
30304;DHT22;17112;48.636;10.152;2023-03-16T07:53:36;6.10;66.50
30304;DHT22;17112;48.636;10.152;2023-03-16T07:56:01;6.30;66.40
30304;DHT22;17112;48.636;10.152;2023-03-16T07:58:27;6.40;66.00
30304;DHT22;17112;48.636;10.152;2023-03-16T08:00:59;6.50;65.60
30304;DHT22;17112;48.636;10.152;2023-03-16T08:03:27;6.60;65.40
30304;DHT22;17112;48.636;10.152;2023-03-16T08:05:53;6.70;65.30
30304;DHT22;17112;48.636;10.152;2023-03-16T08:08:20;6.80;65.00
30304;DHT22;17112;48.636;10.152;2023-03-16T08:10:48;6.80;65.00
30304;DHT22;17112;48.636;10.152;2023-03-16T08:13:17;6.90;64.90
30304;DHT22;17112;48.636;10.152;2023-03-16T08:15:49;7.00;64.60
30304;DHT22;17112;48.636;10.152;2023-03-16T08:18:25;7.10;64.40
30304;DHT22;17112;48.636;10.152;2023-03-16T08:20:51;7.20;64.40
30304;DHT22;17112;48.636;10.152;2023-03-16T08:23:17;7.30;64.30
30304;DHT22;17112;48.636;10.152;2023-03-16T08:25:42;7.40;64.00
30304;DHT22;17112;48.636;10.152;2023-03-16T08:28:09;7.50;63.80
30304;DHT22;17112;48.636;10.152;2023-03-16T08:30:35;7.60;63.60
30304;DHT22;17112;48.636;10.152;2023-03-16T08:33:01;7.70;64.10
30304;DHT22;17112;48.636;10.152;2023-03-16T08:35:28;7.70;63.30
30304;DHT22;17112;48.636;10.152;2023-03-16T08:37:54;7.80;63.40
30304;DHT22;17112;48.636;10.152;2023-03-16T08:40:21;7.90;63.40
30304;DHT22;17112;48.636;10.152;2023-03-16T08:42:47;8.00;63.40
30304;DHT22;17112;48.636;10.152;2023-03-16T08:45:15;8.10;63.20
30304;DHT22;17112;48.636;10.152;2023-03-16T08:47:42;8.20;63.10
30304;DHT22;17112;48.636;10.152;2023-03-16T08:50:10;8.30;63.00
30304;DHT22;17112;48.636;10.152;2023-03-16T08:52:40;8.40;62.80
30304;DHT22;17112;48.636;10.152;2023-03-16T08:55:06;8.50;62.50
30304;DHT22;17112;48.636;10.152;2023-03-16T08:57:34;8.60;62.50
30304;DHT22;17112;48.636;10.152;2023-03-16T08:59:59;8.70;62.50
30304;DHT22;17112;48.636;10.152;2023-03-16T09:02:26;8.80;62.20
30304;DHT22;17112;48.636;10.152;2023-03-16T09:04:52;8.90;61.90
30304;DHT22;17112;48.636;10.152;2023-03-16T09:07:18;9.00;61.60
30304;DHT22;17112;48.636;10.152;2023-03-16T09:09:44;9.10;61.20
30304;DHT22;17112;48.636;10.152;2023-03-16T09:12:11;9.10;60.80
30304;DHT22;17112;48.636;10.152;2023-03-16T09:14:38;9.10;60.50
30304;DHT22;17112;48.636;10.152;2023-03-16T09:17:05;9.10;60.50
30304;DHT22;17112;48.636;10.152;2023-03-16T09:19:32;9.10;60.60
30304;DHT22;17112;48.636;10.152;2023-03-16T09:21:58;9.20;60.80
30304;DHT22;17112;48.636;10.152;2023-03-16T09:24:24;9.20;60.80
30304;DHT22;17112;48.636;10.152;2023-03-16T09:26:50;9.30;60.50
30304;DHT22;17112;48.636;10.152;2023-03-16T09:29:16;9.30;60.40
30304;DHT22;17112;48.636;10.152;2023-03-16T09:31:43;9.30;60.30
30304;DHT22;17112;48.636;10.152;2023-03-16T09:34:09;9.40;60.40
30304;DHT22;17112;48.636;10.152;2023-03-16T09:36:36;9.50;60.80
30304;DHT22;17112;48.636;10.152;2023-03-16T09:39:02;9.50;60.90
30304;DHT22;17112;48.636;10.152;2023-03-16T09:41:45;9.70;60.80
30304;DHT22;17112;48.636;10.152;2023-03-16T09:44:42;9.70;59.90
30304;DHT22;17112;48.636;10.152;2023-03-16T09:47:11;9.80;59.80
30304;DHT22;17112;48.636;10.152;2023-03-16T09:49:47;9.70;59.90
30304;DHT22;17112;48.636;10.152;2023-03-16T09:52:34;9.80;59.90
30304;DHT22;17112;48.636;10.152;2023-03-16T09:57:36;9.90;60.60
30304;DHT22;17112;48.636;10.152;2023-03-16T10:00:20;10.10;60.30
30304;DHT22;17112;48.636;10.152;2023-03-16T10:05:28;10.30;59.60
30304;DHT22;17112;48.636;10.152;2023-03-16T10:08:23;10.30;59.70
30304;DHT22;17112;48.636;10.152;2023-03-16T10:16:42;10.60;59.50
30304;DHT22;17112;48.636;10.152;2023-03-16T10:19:32;10.70;59.20
30304;DHT22;17112;48.636;10.152;2023-03-16T10:22:00;10.80;59.10
30304;DHT22;17112;48.636;10.152;2023-03-16T10:27:31;11.00;58.40
30304;DHT22;17112;48.636;10.152;2023-03-16T10:29:57;11.00;58.40
30304;DHT22;17112;48.636;10.152;2023-03-16T10:32:30;11.00;58.20
30304;DHT22;17112;48.636;10.152;2023-03-16T10:37:36;11.00;57.90
30304;DHT22;17112;48.636;10.152;2023-03-16T10:40:08;11.00;58.10
30304;DHT22;17112;48.636;10.152;2023-03-16T10:42:37;11.10;58.10
30304;DHT22;17112;48.636;10.152;2023-03-16T10:45:04;11.10;58.50
30304;DHT22;17112;48.636;10.152;2023-03-16T10:47:32;11.10;58.60
30304;DHT22;17112;48.636;10.152;2023-03-16T10:49:58;11.20;58.50
30304;DHT22;17112;48.636;10.152;2023-03-16T10:52:46;11.20;58.10
30304;DHT22;17112;48.636;10.152;2023-03-16T10:55:40;11.30;57.70
30304;DHT22;17112;48.636;10.152;2023-03-16T10:58:08;11.50;58.00
30304;DHT22;17112;48.636;10.152;2023-03-16T11:00:36;11.60;58.20
30304;DHT22;17112;48.636;10.152;2023-03-16T11:03:18;11.60;57.90
30304;DHT22;17112;48.636;10.152;2023-03-16T11:05:47;11.70;57.70
30304;DHT22;17112;48.636;10.152;2023-03-16T11:08:24;11.70;57.90
30304;DHT22;17112;48.636;10.152;2023-03-16T11:10:59;11.80;57.80
30304;DHT22;17112;48.636;10.152;2023-03-16T11:13:35;11.90;57.80
30304;DHT22;17112;48.636;10.152;2023-03-16T11:18:41;12.00;57.20
30304;DHT22;17112;48.636;10.152;2023-03-16T11:23:55;12.00;57.10
30304;DHT22;17112;48.636;10.152;2023-03-16T11:26:30;12.10;57.70
30304;DHT22;17112;48.636;10.152;2023-03-16T11:29:20;12.20;57.40
30304;DHT22;17112;48.636;10.152;2023-03-16T11:32:00;12.30;57.20
30304;DHT22;17112;48.636;10.152;2023-03-16T11:34:30;12.40;57.20
30304;DHT22;17112;48.636;10.152;2023-03-16T11:37:11;12.40;57.30
30304;DHT22;17112;48.636;10.152;2023-03-16T11:39:53;12.50;57.10
30304;DHT22;17112;48.636;10.152;2023-03-16T11:42:38;12.60;56.60
30304;DHT22;17112;48.636;10.152;2023-03-16T11:45:29;12.60;56.30
30304;DHT22;17112;48.636;10.152;2023-03-16T11:56:02;12.80;56.50
30304;DHT22;17112;48.636;10.152;2023-03-16T11:58:48;12.90;56.00
30304;DHT22;17112;48.636;10.152;2023-03-16T12:07:05;13.20;55.50
30304;DHT22;17112;48.636;10.152;2023-03-16T12:15:07;13.60;54.70
30304;DHT22;17112;48.636;10.152;2023-03-16T12:17:36;13.70;54.70
30304;DHT22;17112;48.636;10.152;2023-03-16T12:20:21;13.70;55.00
30304;DHT22;17112;48.636;10.152;2023-03-16T12:23:01;13.90;54.50
30304;DHT22;17112;48.636;10.152;2023-03-16T12:25:38;14.00;53.70
30304;DHT22;17112;48.636;10.152;2023-03-16T12:28:26;14.00;54.20
30304;DHT22;17112;48.636;10.152;2023-03-16T12:31:10;14.10;53.80
30304;DHT22;17112;48.636;10.152;2023-03-16T12:33:46;14.30;53.50
30304;DHT22;17112;48.636;10.152;2023-03-16T12:38:56;14.40;53.30
30304;DHT22;17112;48.636;10.152;2023-03-16T12:41:41;14.40;52.10
30304;DHT22;17112;48.636;10.152;2023-03-16T12:44:18;14.50;50.40
30304;DHT22;17112;48.636;10.152;2023-03-16T12:47:21;14.50;52.20
30304;DHT22;17112;48.636;10.152;2023-03-16T12:49:52;14.60;50.40
30304;DHT22;17112;48.636;10.152;2023-03-16T12:52:18;14.70;52.20
30304;DHT22;17112;48.636;10.152;2023-03-16T12:54:52;14.80;52.20
30304;DHT22;17112;48.636;10.152;2023-03-16T12:57:23;14.90;50.90
30304;DHT22;17112;48.636;10.152;2023-03-16T12:59:55;15.00;51.30
30304;DHT22;17112;48.636;10.152;2023-03-16T13:02:30;15.00;50.20
30304;DHT22;17112;48.636;10.152;2023-03-16T13:05:01;15.10;50.50
30304;DHT22;17112;48.636;10.152;2023-03-16T13:07:32;15.20;49.40
30304;DHT22;17112;48.636;10.152;2023-03-16T13:10:03;15.30;50.30
30304;DHT22;17112;48.636;10.152;2023-03-16T13:12:34;15.40;50.20
30304;DHT22;17112;48.636;10.152;2023-03-16T13:15:29;15.40;50.10
30304;DHT22;17112;48.636;10.152;2023-03-16T13:25:59;15.50;49.60
30304;DHT22;17112;48.636;10.152;2023-03-16T13:28:32;15.50;49.30
30304;DHT22;17112;48.636;10.152;2023-03-16T13:30:59;15.50;48.30
30304;DHT22;17112;48.636;10.152;2023-03-16T13:33:27;15.60;49.40
30304;DHT22;17112;48.636;10.152;2023-03-16T13:35:56;15.60;49.10
30304;DHT22;17112;48.636;10.152;2023-03-16T13:38:24;15.60;48.80
30304;DHT22;17112;48.636;10.152;2023-03-16T13:40:54;15.70;48.20
30304;DHT22;17112;48.636;10.152;2023-03-16T13:43:27;15.70;47.80
30304;DHT22;17112;48.636;10.152;2023-03-16T13:45:54;15.70;48.80
30304;DHT22;17112;48.636;10.152;2023-03-16T13:48:20;15.80;49.10
30304;DHT22;17112;48.636;10.152;2023-03-16T13:50:56;15.80;48.90
30304;DHT22;17112;48.636;10.152;2023-03-16T13:53:28;15.90;47.50
30304;DHT22;17112;48.636;10.152;2023-03-16T13:55:55;15.90;47.50
30304;DHT22;17112;48.636;10.152;2023-03-16T13:58:25;16.00;48.50
30304;DHT22;17112;48.636;10.152;2023-03-16T14:00:57;16.00;48.30
30304;DHT22;17112;48.636;10.152;2023-03-16T14:03:31;16.10;48.20
30304;DHT22;17112;48.636;10.152;2023-03-16T14:05:58;16.10;48.00
30304;DHT22;17112;48.636;10.152;2023-03-16T14:08:24;16.20;47.40
30304;DHT22;17112;48.636;10.152;2023-03-16T14:10:53;16.30;47.70
30304;DHT22;17112;48.636;10.152;2023-03-16T14:15:55;16.50;48.20
30304;DHT22;17112;48.636;10.152;2023-03-16T14:18:26;16.60;48.10
30304;DHT22;17112;48.636;10.152;2023-03-16T14:20:54;16.80;48.20
30304;DHT22;17112;48.636;10.152;2023-03-16T14:23:27;16.90;47.60
30304;DHT22;17112;48.636;10.152;2023-03-16T14:25:55;17.00;46.70
30304;DHT22;17112;48.636;10.152;2023-03-16T14:28:27;17.10;46.90
30304;DHT22;17112;48.636;10.152;2023-03-16T14:31:03;17.20;46.30
30304;DHT22;17112;48.636;10.152;2023-03-16T14:33:31;17.20;45.70
30304;DHT22;17112;48.636;10.152;2023-03-16T14:36:05;17.20;46.00
30304;DHT22;17112;48.636;10.152;2023-03-16T14:38:35;17.30;45.60
30304;DHT22;17112;48.636;10.152;2023-03-16T14:41:16;17.30;45.90
30304;DHT22;17112;48.636;10.152;2023-03-16T14:43:54;17.40;45.80
30304;DHT22;17112;48.636;10.152;2023-03-16T14:46:37;17.40;45.10
30304;DHT22;17112;48.636;10.152;2023-03-16T14:49:15;17.40;43.40
30304;DHT22;17112;48.636;10.152;2023-03-16T14:51:43;17.50;44.90
30304;DHT22;17112;48.636;10.152;2023-03-16T14:54:14;17.60;44.70
30304;DHT22;17112;48.636;10.152;2023-03-16T14:56:42;17.60;44.10
30304;DHT22;17112;48.636;10.152;2023-03-16T14:59:08;17.70;44.10
30304;DHT22;17112;48.636;10.152;2023-03-16T15:01:35;17.80;43.60
30304;DHT22;17112;48.636;10.152;2023-03-16T15:04:02;17.90;43.40
30304;DHT22;17112;48.636;10.152;2023-03-16T15:06:28;17.80;43.50
30304;DHT22;17112;48.636;10.152;2023-03-16T15:08:55;17.80;43.70
30304;DHT22;17112;48.636;10.152;2023-03-16T15:11:21;17.90;43.00
30304;DHT22;17112;48.636;10.152;2023-03-16T15:13:49;17.60;42.30
30304;DHT22;17112;48.636;10.152;2023-03-16T15:16:15;17.40;42.30
30304;DHT22;17112;48.636;10.152;2023-03-16T15:18:41;17.10;42.50
30304;DHT22;17112;48.636;10.152;2023-03-16T15:23:42;16.60;42.70
30304;DHT22;17112;48.636;10.152;2023-03-16T15:26:10;16.40;43.40
30304;DHT22;17112;48.636;10.152;2023-03-16T15:28:36;16.30;43.40
30304;DHT22;17112;48.636;10.152;2023-03-16T15:31:03;16.10;43.90
30304;DHT22;17112;48.636;10.152;2023-03-16T15:33:29;16.00;44.30
30304;DHT22;17112;48.636;10.152;2023-03-16T15:35:57;15.90;44.40
30304;DHT22;17112;48.636;10.152;2023-03-16T15:38:24;15.90;44.20
30304;DHT22;17112;48.636;10.152;2023-03-16T15:40:52;15.80;44.30
30304;DHT22;17112;48.636;10.152;2023-03-16T15:43:29;15.80;44.40
30304;DHT22;17112;48.636;10.152;2023-03-16T15:45:56;15.80;44.50
30304;DHT22;17112;48.636;10.152;2023-03-16T15:48:22;15.70;44.80
30304;DHT22;17112;48.636;10.152;2023-03-16T15:50:56;15.80;44.80
30304;DHT22;17112;48.636;10.152;2023-03-16T15:53:27;15.80;44.60
30304;DHT22;17112;48.636;10.152;2023-03-16T15:55:58;15.90;45.00
30304;DHT22;17112;48.636;10.152;2023-03-16T15:58:27;15.80;44.50
30304;DHT22;17112;48.636;10.152;2023-03-16T16:00:55;15.70;44.20
30304;DHT22;17112;48.636;10.152;2023-03-16T16:03:22;15.60;44.20
30304;DHT22;17112;48.636;10.152;2023-03-16T16:05:48;15.40;44.20
30304;DHT22;17112;48.636;10.152;2023-03-16T16:08:14;15.20;45.00
30304;DHT22;17112;48.636;10.152;2023-03-16T16:10:41;15.00;44.20
30304;DHT22;17112;48.636;10.152;2023-03-16T16:13:28;14.90;44.30
30304;DHT22;17112;48.636;10.152;2023-03-16T16:15:55;14.70;44.20
30304;DHT22;17112;48.636;10.152;2023-03-16T16:18:25;14.50;44.90
30304;DHT22;17112;48.636;10.152;2023-03-16T16:20:53;14.40;45.10
30304;DHT22;17112;48.636;10.152;2023-03-16T16:23:19;14.20;45.40
30304;DHT22;17112;48.636;10.152;2023-03-16T16:25:44;14.10;45.80
30304;DHT22;17112;48.636;10.152;2023-03-16T16:28:16;13.90;46.00
30304;DHT22;17112;48.636;10.152;2023-03-16T16:30:43;13.80;46.10
30304;DHT22;17112;48.636;10.152;2023-03-16T16:33:33;13.70;46.40
30304;DHT22;17112;48.636;10.152;2023-03-16T16:36:05;13.60;46.50
30304;DHT22;17112;48.636;10.152;2023-03-16T16:38:31;13.50;46.50
30304;DHT22;17112;48.636;10.152;2023-03-16T16:40:59;13.40;47.10
30304;DHT22;17112;48.636;10.152;2023-03-16T16:45:55;13.20;47.10
30304;DHT22;17112;48.636;10.152;2023-03-16T16:50:54;13.00;47.50